createdAt,value
2023-05-21T00:02:45.158Z,13.47
2023-05-21T00:07:48.303Z,14.10
2023-05-21T00:12:50.020Z,15.00
2023-05-21T00:17:52.047Z,11.73
2023-05-21T00:22:55.205Z,13.00
2023-05-21T00:27:56.959Z,10.97
2023-05-21T00:33:02.474Z,10.43
2023-05-21T00:38:07.529Z,11.73
2023-05-21T00:43:12.037Z,10.50
2023-05-21T00:48:14.895Z,10.40
2023-05-21T00:53:19.427Z,10.53
2023-05-21T00:58:21.308Z,9.40
2023-05-21T01:03:23.134Z,10.50
2023-05-21T01:08:27.154Z,10.67
2023-05-21T01:13:29.005Z,11.00
2023-05-21T01:18:35.025Z,10.47
2023-05-21T01:23:38.061Z,11.33
2023-05-21T01:28:39.920Z,10.17
2023-05-21T01:33:44.609Z,10.33
2023-05-21T01:38:50.004Z,9.60
2023-05-21T01:43:51.698Z,10.00
2023-05-21T01:48:53.438Z,10.43
2023-05-21T01:53:56.597Z,9.03
2023-05-21T01:58:59.571Z,10.60
2023-05-21T02:04:01.808Z,10.50
2023-05-21T02:09:05.066Z,8.33
2023-05-21T02:14:07.925Z,8.23
2023-05-21T02:19:10.546Z,11.53
2023-05-21T02:24:14.086Z,8.90
2023-05-21T02:29:15.916Z,8.70
2023-05-21T02:34:20.507Z,8.90
2023-05-21T02:39:23.666Z,8.47
2023-05-21T02:44:25.889Z,7.83
2023-05-21T02:49:27.613Z,8.70
2023-05-21T02:54:30.958Z,7.23
2023-05-21T02:59:32.807Z,8.53
2023-05-21T03:04:38.900Z,7.43
2023-05-21T03:09:42.391Z,9.37
2023-05-21T03:14:46.272Z,11.50
2023-05-21T03:19:49.144Z,7.30
2023-05-21T03:24:53.400Z,7.03
2023-05-21T03:29:55.796Z,7.60
2023-05-21T03:34:57.870Z,8.03
2023-05-21T03:40:00.961Z,8.33
2023-05-21T03:45:03.218Z,9.10
2023-05-21T03:50:34.012Z,8.17
2023-05-21T03:55:37.305Z,9.00
2023-05-21T04:00:39.258Z,7.50
2023-05-21T04:05:42.384Z,9.53
2023-05-21T04:10:45.654Z,7.40
2023-05-21T04:15:47.714Z,9.90
2023-05-21T04:20:50.481Z,8.00
2023-05-21T04:25:53.948Z,9.27
2023-05-21T04:30:59.373Z,7.13
2023-05-21T04:36:01.309Z,16.23
2023-05-21T04:41:04.716Z,8.90
2023-05-21T04:46:07.553Z,12.40
2023-05-21T04:51:09.526Z,13.40
2023-05-21T04:56:12.593Z,10.50
2023-05-21T05:01:14.754Z,10.30
2023-05-21T05:06:16.747Z,12.40
2023-05-21T05:11:19.820Z,10.13
2023-05-21T05:16:25.713Z,17.23
2023-05-21T05:21:27.977Z,18.77
2023-05-21T05:26:31.299Z,15.20
2023-05-21T05:31:33.218Z,18.20
2023-05-21T05:36:35.371Z,14.97
2023-05-21T05:41:39.694Z,14.53
2023-05-21T05:46:41.590Z,14.80
2023-05-21T05:51:43.360Z,16.70
2023-05-21T05:56:46.556Z,20.77
2023-05-21T06:01:48.396Z,25.43
2023-05-21T06:06:52.379Z,28.73
2023-05-21T06:11:55.639Z,24.57
2023-05-21T06:16:57.371Z,26.50
2023-05-21T06:22:00.870Z,23.97
2023-05-21T06:27:04.369Z,24.00
2023-05-21T06:32:07.762Z,28.07
2023-05-21T06:37:09.624Z,30.20
2023-05-21T06:42:12.701Z,26.70
2023-05-21T06:47:21.568Z,26.83
2023-05-21T06:52:24.376Z,23.90
2023-05-21T06:57:27.606Z,26.27
2023-05-21T07:02:29.582Z,25.57
2023-05-21T07:07:31.539Z,24.13
2023-05-21T07:12:35.760Z,26.70
2023-05-21T07:17:38.818Z,24.67
2023-05-21T07:22:41.489Z,28.73
2023-05-21T07:27:45.567Z,25.70
2023-05-21T07:32:47.344Z,23.77
2023-05-21T07:37:49.418Z,23.77
2023-05-21T07:42:52.545Z,23.43
2023-05-21T07:47:57.051Z,24.73
2023-05-21T07:52:59.910Z,25.77
2023-05-21T07:58:03.177Z,29.67
2023-05-21T08:03:07.978Z,23.03
2023-05-21T08:08:11.580Z,26.03
2023-05-21T08:13:16.368Z,25.73
2023-05-21T08:18:18.492Z,28.30
2023-05-21T08:23:21.531Z,25.57
2023-05-21T08:28:29.933Z,26.03
2023-05-21T08:33:31.804Z,23.00
2023-05-21T08:38:34.027Z,23.40
2023-05-21T08:43:50.258Z,22.50
2023-05-21T08:48:55.081Z,24.90
2023-05-21T08:53:58.890Z,24.63
2023-05-21T08:59:02.039Z,19.60
2023-05-21T09:04:20.357Z,20.87
2023-05-21T09:09:28.294Z,22.27
2023-05-21T09:14:31.810Z,23.20
2023-05-21T09:20:14.870Z,20.57
2023-05-21T09:25:23.492Z,21.67
2023-05-21T09:30:30.027Z,22.67
2023-05-21T09:35:33.404Z,22.00
2023-05-21T09:40:35.706Z,20.23
2023-05-21T09:45:39.081Z,25.50
2023-05-21T09:50:40.988Z,18.60
2023-05-21T09:55:43.236Z,23.63
2023-05-21T10:00:46.299Z,26.97
2023-05-21T10:05:48.011Z,22.73
2023-05-21T10:10:49.699Z,24.13
2023-05-21T10:15:54.927Z,27.03
2023-05-21T10:20:56.717Z,23.47
2023-05-21T10:25:58.457Z,20.87
2023-05-21T10:31:01.616Z,22.33
2023-05-21T10:36:03.747Z,27.23
2023-05-21T10:41:06.707Z,19.20
2023-05-21T10:46:19.656Z,22.83
2023-05-21T10:51:23.748Z,21.67
2023-05-21T10:56:28.631Z,19.63
2023-05-21T11:01:33.933Z,28.00
2023-05-21T11:06:35.854Z,18.80
2023-05-21T11:11:43.890Z,22.47
2023-05-21T11:16:47.013Z,18.80
2023-05-21T11:21:50.646Z,20.73
2023-05-21T11:27:04.198Z,21.33
2023-05-21T11:32:09.186Z,20.70
2023-05-21T11:37:25.340Z,25.33
2023-05-21T11:42:31.105Z,20.77
2023-05-21T11:47:34.247Z,21.87
2023-05-21T11:52:36.017Z,25.33
2023-05-21T11:57:38.208Z,19.40
2023-05-21T12:02:44.354Z,22.53
2023-05-21T12:07:48.781Z,21.20
2023-05-21T12:12:56.621Z,21.07
2023-05-21T12:18:01.258Z,19.80
2023-05-21T12:23:03.084Z,20.73
2023-05-21T12:28:05.377Z,19.83
2023-05-21T12:33:08.485Z,20.10
2023-05-21T12:38:10.331Z,19.07
2023-05-21T12:43:12.122Z,22.43
2023-05-21T12:48:15.116Z,21.37
2023-05-21T12:53:16.835Z,21.90
2023-05-21T12:58:21.963Z,27.83
2023-05-21T13:03:25.659Z,19.73
2023-05-21T13:08:27.525Z,20.87
2023-05-21T13:13:29.258Z,18.50
2023-05-21T13:18:32.280Z,18.90
2023-05-21T13:23:34.033Z,19.10
2023-05-21T13:28:35.766Z,19.57
2023-05-21T13:33:38.964Z,23.03
2023-05-21T13:38:40.747Z,24.47
2023-05-21T13:43:42.590Z,27.77
2023-05-21T13:48:45.638Z,27.03
2023-05-21T13:53:47.484Z,26.37
2023-05-21T13:58:49.243Z,33.00
2023-05-21T14:03:52.314Z,23.40
2023-05-21T14:08:54.134Z,24.70
2023-05-21T14:13:56.139Z,24.90
2023-05-21T14:18:59.300Z,44.93
2023-05-21T14:24:01.125Z,37.20
2023-05-21T14:29:02.887Z,28.20
2023-05-21T14:34:08.948Z,25.50
2023-05-21T14:39:10.658Z,25.67
2023-05-21T14:44:12.425Z,24.07
2023-05-21T14:49:15.448Z,21.90
2023-05-21T14:54:17.211Z,20.77
2023-05-21T14:59:19.032Z,18.93
2023-05-21T15:04:22.180Z,23.20
2023-05-21T15:09:24.136Z,20.10
2023-05-21T15:14:25.892Z,22.20
2023-05-21T15:19:28.985Z,17.10
2023-05-21T15:24:30.792Z,24.67
2023-05-21T15:29:32.597Z,22.60
2023-05-21T15:34:35.811Z,15.80
2023-05-21T15:39:37.771Z,16.60
2023-05-21T15:44:39.541Z,20.73
2023-05-21T15:49:42.949Z,21.97
2023-05-21T15:54:44.714Z,15.50
2023-05-21T15:59:46.490Z,18.83
2023-05-21T16:04:51.675Z,19.23
2023-05-21T16:09:53.400Z,15.83
2023-05-21T16:14:55.229Z,17.00
2023-05-21T16:19:58.368Z,18.07
2023-05-21T16:25:00.154Z,20.00
2023-05-21T16:30:02.050Z,19.00
2023-05-21T16:35:06.561Z,17.20
2023-05-21T16:40:09.651Z,16.77
2023-05-21T16:45:19.376Z,19.27
2023-05-21T16:50:22.697Z,23.70
2023-05-21T16:55:24.514Z,21.20
2023-05-21T17:00:26.359Z,25.57
2023-05-21T17:05:29.513Z,23.73
2023-05-21T17:10:31.465Z,24.10
2023-05-21T17:15:33.285Z,17.37
2023-05-21T17:20:36.365Z,15.70
2023-05-21T17:25:38.242Z,16.30
2023-05-21T17:30:40.424Z,16.83
2023-05-21T17:35:43.509Z,14.47
2023-05-21T17:40:45.266Z,17.07
2023-05-21T17:45:47.026Z,13.73
2023-05-21T17:50:51.002Z,15.73
2023-05-21T17:55:53.191Z,13.67
2023-05-21T18:00:54.920Z,21.20
2023-05-21T18:05:58.056Z,22.33
2023-05-21T18:11:01.546Z,16.70
2023-05-21T18:16:03.349Z,21.57
2023-05-21T18:21:06.422Z,13.80
2023-05-21T18:26:08.180Z,12.47
2023-05-21T18:31:10.118Z,17.80
2023-05-21T18:36:13.156Z,10.30
2023-05-21T18:41:14.900Z,13.80
2023-05-21T18:46:16.688Z,13.70
2023-05-21T18:51:19.962Z,12.80
2023-05-21T18:56:21.959Z,13.10
2023-05-21T19:01:23.899Z,13.50
2023-05-21T19:06:27.678Z,14.60
2023-05-21T19:11:34.191Z,20.47
2023-05-21T19:16:36.119Z,28.93
2023-05-21T19:21:39.298Z,11.63
2023-05-21T19:26:41.055Z,10.87
2023-05-21T19:31:42.808Z,15.33
2023-05-21T19:36:53.516Z,17.83
2023-05-21T19:41:56.367Z,19.33
2023-05-21T19:46:58.925Z,16.80
2023-05-21T19:52:02.458Z,24.23
2023-05-21T19:57:04.737Z,17.40
2023-05-21T20:02:06.662Z,26.23
2023-05-21T20:07:10.228Z,21.33
2023-05-21T20:12:12.644Z,18.00
2023-05-21T20:17:14.800Z,18.63
2023-05-21T20:22:18.063Z,15.73
2023-05-21T20:27:19.962Z,20.60
2023-05-21T20:32:22.064Z,12.90
2023-05-21T20:37:26.375Z,15.87
2023-05-21T20:42:30.928Z,14.70
2023-05-21T20:47:33.814Z,12.03
2023-05-21T20:52:37.033Z,12.07
2023-05-21T20:57:38.836Z,13.83
2023-05-21T21:02:40.637Z,13.23
2023-05-21T21:07:45.576Z,14.30
2023-05-21T21:12:47.541Z,13.27
2023-05-21T21:17:49.498Z,12.67
2023-05-21T21:22:52.663Z,16.37
2023-05-21T21:27:54.780Z,14.03
2023-05-21T21:32:56.587Z,13.13
2023-05-21T21:37:59.727Z,12.93
2023-05-21T21:43:01.469Z,21.23
2023-05-21T21:48:03.273Z,16.40
2023-05-21T21:53:06.397Z,10.43
2023-05-21T21:58:08.136Z,12.43
2023-05-21T22:03:11.584Z,14.57
2023-05-21T22:08:16.178Z,14.83
2023-05-21T22:13:17.903Z,16.47
2023-05-21T22:18:31.916Z,14.37
2023-05-21T22:23:42.331Z,13.03
2023-05-21T22:28:44.100Z,10.40
2023-05-21T22:33:45.920Z,10.40
2023-05-21T22:38:48.988Z,10.20
2023-05-21T22:43:50.687Z,13.40
2023-05-21T22:48:53.866Z,11.70
2023-05-21T22:53:56.968Z,9.87
2023-05-21T22:58:59.514Z,11.97
2023-05-21T23:04:01.390Z,9.83
2023-05-21T23:09:04.894Z,11.33
2023-05-21T23:14:06.802Z,10.00
2023-05-21T23:19:08.570Z,10.80
2023-05-21T23:24:11.671Z,16.00
2023-05-21T23:29:13.481Z,13.40
2023-05-21T23:34:15.225Z,20.90
2023-05-21T23:39:18.465Z,16.10
2023-05-21T23:44:21.000Z,12.17
2023-05-21T23:49:22.707Z,11.10
2023-05-21T23:54:25.783Z,10.10
2023-05-21T23:59:27.541Z,9.80
